South Elma, Washington
Current Conditions -  °F | °C
As of 4:25 PM on Friday 21 Nov 2014 (Local Time) from KSHN Reporting Station
Moderate Rain Moderate Rain  
Wind Chill: 46°   Ceiling: 500
Heat Index: 48°   Visibility: 1.7mi
Dew Point: 47°   Wind: 5mph
Humidity: 96%   Direction: 360°N
Pressure: 29.3"   Gusts: NA
Location:  46.9859°N, 123.385°W
Report Text: KSHN 220025Z AUTO 36004KT 1 3/4SM RA BR BKN005 OVC019 09/08 A2930 RMK AO2 P0017 T00890083
Loading
Personal Weather Stations






























Interactive Weather Map New forecast layout! Learn more

10-Day Weather Forecast

Advertisements
Track Severe Weather on mobile